Andrews, Indiana
Current Conditions -  °F | °C
As of 8:35 PM on Monday 24 Nov 2014 (Local Time) from KHHG Reporting Station
Overcast Overcast  
Wind Chill: 22°   Ceiling: 2600
Heat Index: 34°   Visibility: 10mi
Dew Point: 27°   Wind: 20mph
Humidity: 76%   Direction: 240°WSW
Pressure: 29.77"   Gusts: 29mph
Location:  40.86°N, 85.6°W
Report Text: KHHG 250135Z AUTO 24017G25KT 10SM BKN026 OVC034 01/M03 A2977 RMK AO2 T00101028
Loading
Personal Weather Stations






























Interactive Weather Map New forecast layout! Learn more

10-Day Weather Forecast

Advertisements
Track Severe Weather on mobile